Time;durP1;ratioP1;P1;durP2;ratioP2;P2;SDS_P1;SDS_P2;PMS_P1;PMS_P2;Temp;Humidity;BMP_temperature;BMP_pressure;BME280_temperature;BME280_humidity;BME280_pressure;Samples;Min_cycle;Max_cycle;Signal;HPM_P1;HPM_P2
2023/09/12 00:02:04;;;;;;;;;4.75;4.75;;;;;25.60;56.29;100840.22;5039029;28;45240;-82
2023/09/12 00:04:29;;;;;;;;;4.25;4.25;;;;;25.65;56.63;100848.84;5037128;28;45417;-82
2023/09/12 00:06:54;;;;;;;;;5.25;5.25;;;;;25.65;56.90;100857.06;5037694;28;45680;-82
2023/09/12 00:09:20;;;;;;;;;5.00;5.00;;;;;25.52;56.17;100838.22;5037814;28;45346;-82
2023/09/12 00:11:45;;;;;;;;;4.00;3.50;;;;;25.57;56.53;100845.13;5037532;28;45223;-82
2023/09/12 00:14:15;;;;;;;;;4.00;4.00;;;;;25.54;56.63;100839.94;5037158;28;47037;-82
2023/09/12 00:16:40;;;;;;;;;4.50;4.50;;;;;25.44;56.84;100829.91;5036117;28;45342;-82
2023/09/12 00:19:05;;;;;;;;;4.00;4.00;;;;;25.48;56.41;100833.19;5038862;28;45316;-82
2023/09/12 00:21:30;;;;;;;;;4.00;4.00;;;;;25.50;57.09;100840.22;5037580;28;45313;-82
2023/09/12 00:23:56;;;;;;;;;4.75;4.75;;;;;25.44;56.84;100832.63;5034005;28;56421;-82
2023/09/12 00:26:21;;;;;;;;;8.00;6.00;;;;;25.48;56.82;100842.25;5029246;28;45434;-82
2023/09/12 00:28:46;;;;;;;;;5.00;5.00;;;;;25.47;56.78;100840.50;5023871;28;45280;-82
2023/09/12 00:31:12;;;;;;;;;4.00;4.00;;;;;25.38;57.59;100825.00;5030905;28;54472;-82
2023/09/12 00:33:37;;;;;;;;;4.75;4.75;;;;;25.42;57.44;100834.63;5033401;28;45344;-82
2023/09/12 00:36:02;;;;;;;;;2.75;2.75;;;;;25.47;57.68;100845.13;5038588;28;45189;-82
2023/09/12 00:38:28;;;;;;;;;5.00;5.00;;;;;25.42;57.38;100833.75;5038582;28;45528;-82
2023/09/12 00:40:53;;;;;;;;;4.00;4.00;;;;;25.44;57.10;100842.69;5035848;28;45429;-82
2023/09/12 00:43:18;;;;;;;;;5.50;5.50;;;;;25.31;57.30;100823.84;5033095;28;45372;-82
2023/09/12 00:45:44;;;;;;;;;5.00;5.00;;;;;25.43;57.94;100844.56;5036202;28;46856;-82
2023/09/12 00:48:10;;;;;;;;;4.00;4.00;;;;;25.38;57.91;100835.06;5025892;28;45242;-82
2023/09/12 00:50:36;;;;;;;;;4.75;4.75;;;;;25.38;58.19;100838.66;5038241;28;45284;-82
2023/09/12 00:53:03;;;;;;;;;6.00;5.00;;;;;25.35;57.63;100825.28;5037103;28;47323;-82
2023/09/12 00:55:31;;;;;;;;;5.25;4.25;;;;;25.35;57.45;100836.22;5021636;28;45441;-82
2023/09/12 00:57:57;;;;;;;;;5.00;5.00;;;;;25.27;57.94;100825.13;5022919;28;45385;-82
2023/09/12 01:00:22;;;;;;;;;5.00;5.00;;;;;25.31;58.22;100835.63;5025431;28;45236;-82
2023/09/12 01:02:49;;;;;;;;;4.50;4.50;;;;;25.26;57.94;100845.22;5038183;28;45279;-81
2023/09/12 01:05:16;;;;;;;;;5.00;5.00;;;;;25.17;58.55;100827.81;5036544;28;45648;-82
2023/09/12 01:07:43;;;;;;;;;5.25;5.25;;;;;25.24;58.25;100839.03;5038045;28;45330;-82
2023/09/12 01:10:09;;;;;;;;;6.00;6.00;;;;;25.13;58.54;100832.72;5035140;28;45338;-82
2023/09/12 01:12:35;;;;;;;;;4.75;4.75;;;;;25.12;58.37;100839.16;5024405;28;47047;-82
2023/09/12 01:15:01;;;;;;;;;4.00;3.25;;;;;25.06;58.54;100831.56;5036210;28;45379;-82
2023/09/12 01:17:27;;;;;;;;;5.25;5.25;;;;;25.15;58.48;100836.16;5035075;28;45251;-82
2023/09/12 01:19:53;;;;;;;;;5.50;4.75;;;;;25.10;58.55;100833.00;5037870;28;45252;-82
2023/09/12 01:22:27;;;;;;;;;7.00;6.00;;;;;25.12;59.01;100830.97;5034792;28;45449;-82
2023/09/12 01:25:29;;;;;;;;;5.50;5.00;;;;;25.04;59.00;100809.00;5039900;28;45624;-82
2023/09/12 01:27:59;;;;;;;;;4.50;4.50;;;;;25.00;59.15;100796.63;5028031;28;45326;-82
2023/09/12 01:30:27;;;;;;;;;6.00;6.00;;;;;24.99;58.76;100803.06;5045622;28;45575;-82
2023/09/12 01:32:54;;;;;;;;;5.25;5.25;;;;;24.95;58.62;100812.56;5041327;28;45406;-82
2023/09/12 01:35:19;;;;;;;;;6.75;5.50;;;;;24.89;58.72;100818.59;5041558;28;45431;-82
2023/09/12 01:37:44;;;;;;;;;7.75;6.75;;;;;25.03;59.05;100839.19;5041460;28;45232;-82
2023/09/12 01:40:11;;;;;;;;;8.00;6.25;;;;;24.92;59.11;100829.22;5034820;28;45492;-82
2023/09/12 01:42:40;;;;;;;;;6.25;6.25;;;;;25.01;59.01;100850.25;5038120;28;45504;-82
2023/09/12 01:45:09;;;;;;;;;8.75;7.75;;;;;24.89;59.27;100837.69;5051826;28;45861;-82
2023/09/12 01:47:36;;;;;;;;;6.00;6.00;;;;;24.88;59.77;100847.75;5025692;28;45491;-82
2023/09/12 01:50:05;;;;;;;;;4.00;4.00;;;;;24.71;59.45;100829.34;5039342;28;45258;-82
2023/09/12 01:52:31;;;;;;;;;9.75;8.25;;;;;24.82;59.63;100842.00;5020887;28;46061;-82
2023/09/12 01:54:58;;;;;;;;;5.25;5.25;;;;;24.74;60.09;100826.31;5020085;28;45214;-82
2023/09/12 01:57:23;;;;;;;;;6.25;6.25;;;;;24.65;59.88;100813.53;5023070;28;45458;-82
2023/09/12 01:59:49;;;;;;;;;9.00;7.00;;;;;24.74;60.11;100829.03;5024239;28;45710;-82
2023/09/12 02:02:15;;;;;;;;;5.25;4.50;;;;;24.69;60.03;100834.06;5031607;28;45948;-82
2023/09/12 02:04:41;;;;;;;;;4.00;3.75;;;;;24.62;60.44;100831.03;5037138;28;45276;-82
2023/09/12 02:07:06;;;;;;;;;5.25;5.25;;;;;24.59;60.54;100831.28;5041152;28;45433;-82
2023/09/12 02:09:32;;;;;;;;;8.00;7.00;;;;;24.65;60.11;100841.66;5039396;28;45377;-82
2023/09/12 02:11:57;;;;;;;;;10.00;9.00;;;;;24.62;60.23;100844.66;5022715;28;46109;-82
2023/09/12 02:14:22;;;;;;;;;10.00;9.25;;;;;24.58;60.79;100841.34;5023092;28;50617;-82
2023/09/12 02:16:47;;;;;;;;;7.50;7.50;;;;;24.46;61.11;100836.09;5035487;28;45288;-82
2023/09/12 02:19:13;;;;;;;;;8.00;8.00;;;;;24.32;61.19;100810.06;5039493;28;46029;-82
2023/09/12 02:21:38;;;;;;;;;7.75;7.25;;;;;24.45;61.31;100828.94;5039780;28;51328;-82
2023/09/12 02:24:04;;;;;;;;;7.00;7.00;;;;;24.47;61.53;100835.97;5024386;28;45232;-82
2023/09/12 02:26:29;;;;;;;;;8.75;8.00;;;;;24.42;61.13;100825.47;5030844;28;45351;-82
2023/09/12 02:28:54;;;;;;;;;7.00;7.00;;;;;24.36;61.37;100815.13;5036549;28;45381;-82
2023/09/12 02:31:20;;;;;;;;;8.75;7.00;;;;;24.50;61.48;100845.75;5029904;28;45950;-82
2023/09/12 02:33:45;;;;;;;;;7.25;7.25;;;;;24.46;61.64;100839.72;5036540;28;45301;-82
2023/09/12 02:36:10;;;;;;;;;6.00;5.50;;;;;24.42;61.81;100839.13;5030141;28;45442;-82
2023/09/12 02:38:36;;;;;;;;;7.25;7.25;;;;;24.37;61.46;100825.03;5019060;28;45762;-82
2023/09/12 02:41:02;;;;;;;;;12.25;8.25;;;;;24.44;61.76;100839.00;5019376;28;48256;-82
2023/09/12 02:43:28;;;;;;;;;9.00;9.00;;;;;24.42;61.74;100839.13;5020339;28;45495;-82
2023/09/12 02:45:53;;;;;;;;;7.75;7.75;;;;;24.37;62.18;100840.53;5038563;28;45267;-82
2023/09/12 02:48:18;;;;;;;;;9.50;7.75;;;;;24.34;62.54;100836.22;5024609;28;45436;-82
2023/09/12 02:50:44;;;;;;;;;9.75;7.00;;;;;24.27;61.98;100821.38;5024943;28;46268;-82
2023/09/12 02:53:10;;;;;;;;;8.00;8.00;;;;;24.31;62.53;100835.63;5038648;28;45349;-82
2023/09/12 02:55:39;;;;;;;;;8.00;8.00;;;;;24.18;62.75;100814.03;5038034;28;45274;-82
2023/09/12 02:58:04;;;;;;;;;10.75;9.75;;;;;24.29;62.39;100835.75;5037426;28;45494;-82
2023/09/12 03:00:30;;;;;;;;;10.00;9.00;;;;;24.28;62.70;100842.22;5020828;28;51603;-82
2023/09/12 03:02:55;;;;;;;;;5.00;5.00;;;;;24.22;62.59;100835.44;5019819;28;52441;-82
2023/09/12 03:05:20;;;;;;;;;9.50;9.50;;;;;24.15;63.14;100830.66;5019963;28;45310;-82
2023/09/12 03:07:46;;;;;;;;;10.50;9.25;;;;;24.16;62.60;100827.81;5019893;28;45271;-82
2023/09/12 03:10:11;;;;;;;;;9.00;8.25;;;;;24.21;62.89;100822.78;5023318;28;56171;-82
2023/09/12 03:12:37;;;;;;;;;9.50;7.75;;;;;24.18;63.11;100824.94;5038365;28;45267;-82
2023/09/12 03:15:03;;;;;;;;;7.00;7.00;;;;;24.15;63.35;100815.16;5020089;28;45470;-82
2023/09/12 03:17:28;;;;;;;;;9.25;8.75;;;;;24.21;62.94;100830.13;5032556;28;45375;-82
2023/09/12 03:19:54;;;;;;;;;7.50;6.50;;;;;24.16;62.87;100833.25;5032265;28;46795;-82
2023/09/12 03:22:19;;;;;;;;;6.00;6.00;;;;;24.05;63.16;100808.78;5035580;28;45462;-82
2023/09/12 03:24:45;;;;;;;;;11.00;10.00;;;;;24.09;63.01;100828.47;5019557;28;45323;-82
2023/09/12 03:27:10;;;;;;;;;10.00;9.50;;;;;24.15;63.44;100833.38;5026896;28;45534;-82
2023/09/12 03:29:35;;;;;;;;;10.25;7.75;;;;;24.08;63.23;100829.47;5034681;28;50256;-82
2023/09/12 03:32:01;;;;;;;;;9.75;9.25;;;;;24.11;63.64;100845.56;5038845;28;45536;-82
2023/09/12 03:34:26;;;;;;;;;11.25;8.25;;;;;24.10;63.74;100854.75;5039682;28;45471;-81
2023/09/12 03:36:51;;;;;;;;;10.00;9.00;;;;;24.11;63.69;100851.88;5023225;28;48231;-82
2023/09/12 03:39:16;;;;;;;;;6.50;6.50;;;;;24.08;63.54;100851.31;5019279;28;45242;-82
2023/09/12 03:41:42;;;;;;;;;11.25;11.00;;;;;24.05;63.45;100850.53;5017746;28;52163;-82
2023/09/12 03:44:08;;;;;;;;;9.25;8.75;;;;;23.98;63.53;100852.09;5017744;28;45235;-82
2023/09/12 03:46:33;;;;;;;;;11.00;7.75;;;;;23.88;63.84;100850.31;5018953;28;45391;-82
2023/09/12 03:48:58;;;;;;;;;9.25;9.00;;;;;23.80;63.41;100832.72;5029621;28;48697;-82
2023/09/12 03:51:24;;;;;;;;;13.00;10.75;;;;;23.92;63.89;100849.03;5033397;28;45337;-82
2023/09/12 03:53:49;;;;;;;;;9.00;8.25;;;;;23.86;64.08;100850.44;5030710;28;45218;-81
2023/09/12 03:56:15;;;;;;;;;8.25;8.25;;;;;23.86;64.09;100861.34;5037367;28;45477;-81
2023/09/12 03:58:41;;;;;;;;;7.25;7.25;;;;;23.79;64.50;100860.97;5032431;28;46247;-82
2023/09/12 04:01:06;;;;;;;;;10.25;10.00;;;;;23.80;64.62;100864.56;5019396;28;45208;-81
2023/09/12 04:03:32;;;;;;;;;12.25;10.75;;;;;23.72;64.75;100850.72;5019063;28;45281;-82
2023/09/12 04:05:57;;;;;;;;;10.25;9.25;;;;;23.79;64.13;100860.09;5017782;28;45907;-82
2023/09/12 04:08:22;;;;;;;;;10.75;9.50;;;;;23.78;64.72;100851.06;5037601;28;45502;-82
2023/09/12 04:10:47;;;;;;;;;12.00;12.00;;;;;23.74;64.76;100844.16;5035108;28;45382;-82
2023/09/12 04:13:13;;;;;;;;;10.00;10.00;;;;;23.74;65.05;100849.63;5037578;28;45394;-82
2023/09/12 04:15:38;;;;;;;;;8.50;8.50;;;;;23.60;64.66;100828.13;5038632;28;47537;-82
2023/09/12 04:18:04;;;;;;;;;10.00;10.00;;;;;23.64;65.17;100838.63;5019029;28;45368;-81
2023/09/12 04:20:29;;;;;;;;;13.75;12.25;;;;;23.60;65.16;100828.97;5020545;28;45300;-82
2023/09/12 04:22:55;;;;;;;;;11.00;11.00;;;;;23.59;65.50;100845.47;5032709;28;45314;-82
2023/09/12 04:25:20;;;;;;;;;12.75;12.75;;;;;23.45;65.39;100827.59;5025313;28;45680;-82
2023/09/12 04:27:46;;;;;;;;;11.75;10.75;;;;;23.60;65.36;100866.28;5030461;28;50129;-82
2023/09/12 04:30:11;;;;;;;;;12.00;11.00;;;;;23.63;65.14;100866.03;5032770;28;45252;-82
2023/09/12 04:32:37;;;;;;;;;10.75;10.00;;;;;23.61;64.96;100865.28;5032049;28;45305;-82
2023/09/12 04:35:03;;;;;;;;;10.75;10.75;;;;;23.64;65.25;100870.47;5032155;28;45303;-82
2023/09/12 04:37:28;;;;;;;;;13.00;13.00;;;;;23.60;65.29;100863.56;5021838;28;45268;-82
2023/09/12 04:39:53;;;;;;;;;10.75;9.75;;;;;23.49;65.54;100851.72;5017327;28;45952;-82
2023/09/12 04:42:19;;;;;;;;;13.00;10.75;;;;;23.59;65.58;100880.88;5018609;28;45284;-82
2023/09/12 04:44:44;;;;;;;;;12.50;11.25;;;;;23.59;66.27;100875.44;5017519;28;45377;-82
2023/09/12 04:47:09;;;;;;;;;8.25;7.75;;;;;23.57;65.40;100869.25;5036340;28;46021;-82
2023/09/12 04:49:35;;;;;;;;;10.75;10.75;;;;;23.60;65.70;100872.59;5027168;28;45245;-82
2023/09/12 04:52:00;;;;;;;;;9.75;9.75;;;;;23.57;66.12;100880.16;5029503;28;45188;-82
2023/09/12 04:54:26;;;;;;;;;12.50;12.50;;;;;23.59;65.56;100875.44;5017137;28;45852;-82
2023/09/12 04:56:51;;;;;;;;;15.50;13.00;;;;;23.44;65.54;100862.16;5033439;28;47170;-81
2023/09/12 04:59:16;;;;;;;;;12.25;11.50;;;;;23.52;65.61;100872.38;5028785;28;45423;-81
2023/09/12 05:01:42;;;;;;;;;11.50;11.50;;;;;23.43;65.80;100859.53;5021881;28;45264;-82
2023/09/12 05:04:07;;;;;;;;;11.00;9.50;;;;;23.49;65.79;100870.78;5021594;28;46247;-82
2023/09/12 05:06:33;;;;;;;;;10.50;10.50;;;;;23.50;66.05;100855.28;5036727;28;48236;-81
2023/09/12 05:08:59;;;;;;;;;13.00;13.00;;;;;23.42;66.17;100849.63;5041470;28;45626;-82
2023/09/12 05:11:24;;;;;;;;;16.25;13.00;;;;;23.37;65.98;100839.16;5030991;28;45401;-82
2023/09/12 05:13:50;;;;;;;;;12.50;12.50;;;;;23.45;66.27;100857.53;5033320;28;45303;-82
2023/09/12 05:16:15;;;;;;;;;13.50;12.75;;;;;23.49;66.20;100872.66;5021515;28;47349;-82
2023/09/12 05:18:41;;;;;;;;;11.00;11.00;;;;;23.47;66.21;100877.34;5020300;28;45708;-82
2023/09/12 05:21:06;;;;;;;;;15.00;13.25;;;;;23.35;66.52;100871.06;5021526;28;45518;-82
2023/09/12 05:23:32;;;;;;;;;13.00;12.50;;;;;23.35;66.05;100876.53;5021452;28;45595;-82
2023/09/12 05:25:57;;;;;;;;;14.75;14.75;;;;;23.46;66.44;100901.00;5020110;28;47207;-82
2023/09/12 05:28:22;;;;;;;;;18.75;15.75;;;;;23.33;66.79;100888.56;5037254;28;45279;-82
2023/09/12 05:30:48;;;;;;;;;14.75;14.25;;;;;23.23;66.70;100877.56;5038924;28;45961;-81
2023/09/12 05:33:13;;;;;;;;;12.75;12.75;;;;;23.17;66.93;100876.25;5036115;28;45585;-82
2023/09/12 05:35:38;;;;;;;;;17.75;14.50;;;;;23.28;67.07;100892.53;5031954;28;45370;-81
2023/09/12 05:38:04;;;;;;;;;16.25;13.25;;;;;23.27;67.15;100893.53;5039616;28;45217;-81
2023/09/12 05:40:29;;;;;;;;;14.75;13.50;;;;;23.31;67.00;100895.00;5021213;28;45261;-81
2023/09/12 05:42:54;;;;;;;;;15.25;13.75;;;;;23.35;66.64;100892.00;5033526;28;45552;-80
2023/09/12 05:45:20;;;;;;;;;14.75;12.75;;;;;23.23;66.94;100872.97;5040329;28;57425;-82
2023/09/12 05:47:45;;;;;;;;;13.75;13.75;;;;;23.42;66.86;100890.50;5041055;28;45558;-82
2023/09/12 05:50:11;;;;;;;;;17.00;13.25;;;;;23.44;66.73;100888.53;5036479;28;45641;-82
2023/09/12 05:52:37;;;;;;;;;19.75;18.00;;;;;23.39;67.24;100878.00;5019985;28;45619;-82
2023/09/12 05:55:04;;;;;;;;;16.00;16.00;;;;;23.37;67.09;100877.28;5027470;28;47323;-82
2023/09/12 05:57:32;;;;;;;;;18.25;16.00;;;;;23.43;66.76;100884.06;5029377;28;45562;-82
2023/09/12 05:59:59;;;;;;;;;14.25;13.25;;;;;23.42;66.78;100894.09;5021066;28;45403;-82
2023/09/12 06:02:25;;;;;;;;;18.00;18.00;;;;;23.29;67.42;100877.06;5020051;28;45182;-82
2023/09/12 06:04:50;;;;;;;;;20.00;18.50;;;;;23.39;67.29;100902.53;5020721;28;45370;-82
2023/09/12 06:07:15;;;;;;;;;18.00;16.50;;;;;23.33;67.33;100902.19;5027735;28;45350;-82
2023/09/12 06:09:41;;;;;;;;;17.50;15.75;;;;;23.30;67.15;100904.16;5039085;28;45404;-82
2023/09/12 06:12:06;;;;;;;;;18.25;17.00;;;;;23.15;67.25;100897.25;5036827;28;45365;-82
2023/09/12 06:14:32;;;;;;;;;19.00;17.00;;;;;23.21;67.76;100904.94;5039059;28;45637;-82
2023/09/12 06:16:57;;;;;;;;;16.50;15.25;;;;;23.23;68.15;100911.09;5039106;28;46232;-83
2023/09/12 06:19:22;;;;;;;;;19.50;17.75;;;;;23.08;67.92;100887.88;5021694;28;45844;-82
2023/09/12 06:21:47;;;;;;;;;17.50;17.25;;;;;23.13;67.62;100916.44;5025406;28;45401;-82
2023/09/12 06:24:18;;;;;;;;;13.00;12.25;;;;;23.02;67.99;100916.47;5031919;28;46338;-83
2023/09/12 06:26:44;;;;;;;;;17.00;17.00;;;;;23.00;68.04;100914.84;5037017;28;45217;-82
2023/09/12 06:29:09;;;;;;;;;20.00;18.25;;;;;22.99;67.85;100913.09;5034953;28;45394;-83
2023/09/12 06:31:35;;;;;;;;;22.00;18.50;;;;;23.04;68.00;100919.06;5040692;28;45385;-84
2023/09/12 06:34:01;;;;;;;;;22.00;20.25;;;;;22.93;68.04;100909.88;5027942;28;47465;-83
2023/09/12 06:36:29;;;;;;;;;21.50;18.50;;;;;22.85;67.97;100897.91;5040410;28;45515;-83
2023/09/12 06:38:57;;;;;;;;;20.75;19.25;;;;;22.87;67.91;100902.25;5039737;28;45382;-83
2023/09/12 06:41:22;;;;;;;;;19.75;17.50;;;;;22.97;68.16;100912.34;5029374;28;45479;-83
2023/09/12 06:43:48;;;;;;;;;17.00;16.25;;;;;22.87;68.47;100888.63;5030294;28;46006;-83
2023/09/12 06:46:14;;;;;;;;;22.25;17.25;;;;;22.91;68.61;100897.41;5025549;28;45357;-83
2023/09/12 06:48:39;;;;;;;;;25.50;23.50;;;;;23.04;68.60;100914.47;5023136;28;45329;-83
2023/09/12 06:51:06;;;;;;;;;23.25;21.50;;;;;22.88;68.24;100875.88;5033295;28;45275;-83
2023/09/12 06:53:31;;;;;;;;;18.50;17.50;;;;;23.01;68.36;100894.81;5021041;28;45900;-83
2023/09/12 06:55:58;;;;;;;;;22.50;19.50;;;;;23.12;68.48;100911.13;5027693;28;45443;-83
2023/09/12 06:58:24;;;;;;;;;20.00;19.75;;;;;23.15;68.52;100910.88;5024999;28;45359;-84
2023/09/12 07:00:49;;;;;;;;;23.75;18.50;;;;;22.99;68.23;100869.53;5033182;28;45473;-84
2023/09/12 07:03:15;;;;;;;;;24.50;20.25;;;;;23.19;68.38;100897.88;5023714;28;46513;-84
2023/09/12 07:05:41;;;;;;;;;19.25;18.50;;;;;23.11;68.09;100895.78;5034630;28;45406;-84
2023/09/12 07:08:09;;;;;;;;;23.50;22.75;;;;;23.21;68.14;100902.19;5024003;28;45363;-84
2023/09/12 07:10:35;;;;;;;;;18.00;16.75;;;;;23.06;68.47;100893.44;5024645;28;45347;-84
2023/09/12 07:13:06;;;;;;;;;19.50;19.50;;;;;23.12;68.53;100911.13;5028644;28;45881;-84
2023/09/12 07:15:34;;;;;;;;;15.00;14.00;;;;;23.02;68.49;100902.84;5023498;28;45393;-84
2023/09/12 07:17:59;;;;;;;;;20.50;19.50;;;;;23.16;68.51;100922.66;5036407;28;45413;-84
2023/09/12 07:20:24;;;;;;;;;17.75;17.75;;;;;23.19;68.37;100923.25;5032183;28;45406;-85
2023/09/12 07:22:50;;;;;;;;;16.75;16.75;;;;;23.09;68.38;100906.81;5039117;28;45310;-85
2023/09/12 07:25:16;;;;;;;;;14.75;14.00;;;;;23.13;68.41;100918.31;5039602;28;45250;-84
2023/09/12 07:27:41;;;;;;;;;18.50;16.25;;;;;23.18;68.34;100926.09;5039355;28;45264;-84
2023/09/12 07:30:08;;;;;;;;;16.25;14.25;;;;;23.23;68.35;100923.88;5036216;28;53756;-85
2023/09/12 07:32:33;;;;;;;;;21.00;18.50;;;;;23.20;68.42;100930.41;5022324;28;48521;-85
2023/09/12 07:34:58;;;;;;;;;16.50;16.25;;;;;23.10;68.40;100918.56;5034726;28;45526;-85
2023/09/12 07:37:24;;;;;;;;;20.00;17.25;;;;;23.11;68.15;100939.34;5038780;28;45370;-85
2023/09/12 07:39:49;;;;;;;;;19.75;18.50;;;;;23.03;68.25;100936.38;5016480;28;46005;-84
2023/09/12 07:42:14;;;;;;;;;14.75;14.25;;;;;23.09;68.23;100935.91;5029641;28;45846;-84
2023/09/12 07:44:39;;;;;;;;;18.25;17.25;;;;;23.10;68.49;100934.91;5023745;28;45431;-85
2023/09/12 07:47:05;;;;;;;;;12.00;12.00;;;;;23.12;68.23;100922.00;5030835;28;45584;-84
2023/09/12 07:49:30;;;;;;;;;16.00;15.00;;;;;23.22;68.39;100933.91;5042838;28;45300;-84
2023/09/12 07:51:57;;;;;;;;;20.00;20.00;;;;;23.15;68.50;100924.50;5041499;28;46388;-84
2023/09/12 07:54:22;;;;;;;;;21.00;17.25;;;;;23.10;68.17;100919.44;5033711;28;45443;-85
2023/09/12 07:56:48;;;;;;;;;14.00;13.00;;;;;23.10;68.33;100929.44;5026639;28;45504;-84
2023/09/12 07:59:14;;;;;;;;;18.50;17.25;;;;;23.09;68.51;100941.34;5031146;28;45449;-85
2023/09/12 08:01:40;;;;;;;;;18.25;15.25;;;;;23.11;68.55;100942.94;5028667;28;45551;-85
2023/09/12 08:04:05;;;;;;;;;17.00;17.00;;;;;23.11;68.33;100934.78;5024007;28;45401;-85
2023/09/12 08:06:31;;;;;;;;;16.25;15.00;;;;;23.04;68.45;100919.91;5023106;28;45264;-85
2023/09/12 08:08:56;;;;;;;;;18.00;18.00;;;;;23.10;68.41;100934.91;5031847;28;45391;-85
2023/09/12 08:11:21;;;;;;;;;15.75;15.75;;;;;23.07;68.59;100937.88;5032188;28;45597;-86
2023/09/12 08:13:49;;;;;;;;;15.50;13.25;;;;;23.03;68.64;100937.22;5035317;28;45461;-85
2023/09/12 08:16:15;;;;;;;;;16.25;12.75;;;;;23.08;68.73;100953.22;5033855;28;45538;-85
2023/09/12 08:18:40;;;;;;;;;15.00;14.50;;;;;23.03;68.53;100939.94;5031759;28;45465;-85
2023/09/12 08:21:06;;;;;;;;;18.50;14.00;;;;;23.09;68.36;100957.69;5032952;28;45383;-85
2023/09/12 08:23:31;;;;;;;;;15.00;13.50;;;;;23.05;68.40;100951.56;5030036;28;45579;-85
2023/09/12 08:25:56;;;;;;;;;20.00;18.00;;;;;23.02;68.28;100950.97;5023821;28;45364;-85
2023/09/12 08:28:22;;;;;;;;;18.00;16.25;;;;;22.93;68.68;100939.81;5033734;28;45475;-85
2023/09/12 08:30:47;;;;;;;;;14.25;13.75;;;;;22.88;68.79;100936.63;5021115;28;47213;-85
2023/09/12 08:33:12;;;;;;;;;14.75;12.75;;;;;22.97;68.81;100943.19;5035534;28;45263;-85
2023/09/12 08:35:38;;;;;;;;;12.75;11.25;;;;;23.06;68.79;100953.34;5037400;28;45411;-85
2023/09/12 08:38:03;;;;;;;;;13.75;13.75;;;;;23.10;68.64;100963.00;5034431;28;45573;-85
2023/09/12 08:40:30;;;;;;;;;12.00;12.00;;;;;23.12;68.25;100963.75;5034556;28;46408;-85
2023/09/12 08:42:57;;;;;;;;;11.25;10.00;;;;;23.09;67.84;100955.81;5036906;28;45605;-85
2023/09/12 08:45:23;;;;;;;;;11.25;10.00;;;;;23.13;68.39;100953.69;5037766;28;45425;-85
2023/09/12 08:48:03;;;;;;;;;11.00;10.25;;;;;23.24;67.89;100972.75;5030947;28;45801;-85
2023/09/12 08:50:32;;;;;;;;;14.00;10.25;;;;;23.31;67.75;100970.41;5038632;28;45851;-85
2023/09/12 08:52:58;;;;;;;;;15.50;13.00;;;;;23.34;67.60;100964.69;5039966;28;45525;-84
2023/09/12 08:55:23;;;;;;;;;11.75;11.50;;;;;23.24;67.37;100955.56;5039729;28;45368;-85
2023/09/12 08:57:51;;;;;;;;;15.75;14.75;;;;;23.26;67.71;100967.19;5037345;28;46228;-84
2023/09/12 09:00:17;;;;;;;;;14.50;13.25;;;;;23.21;67.83;100964.84;5035488;28;46207;-84
2023/09/12 09:02:46;;;;;;;;;15.75;14.00;;;;;23.16;67.61;100968.94;5033060;28;45724;-84
2023/09/12 09:05:15;;;;;;;;;11.50;9.50;;;;;23.10;67.88;100956.69;5035722;28;45407;-83
2023/09/12 09:07:43;;;;;;;;;11.75;11.25;;;;;23.10;68.16;100956.69;5031234;28;45454;-83
2023/09/12 09:10:18;;;;;;;;;14.00;14.00;;;;;23.07;68.17;100946.03;5036179;28;46541;-83
2023/09/12 09:12:46;;;;;;;;;11.00;9.00;;;;;23.16;67.85;100958.91;5005297;28;45739;-83
2023/09/12 09:15:31;;;;;;;;;15.00;13.50;;;;;23.14;67.57;100960.91;5028832;28;45567;-83
2023/09/12 09:18:05;;;;;;;;;13.50;12.00;;;;;23.08;68.04;100962.25;5012826;28;45669;-83
2023/09/12 09:20:37;;;;;;;;;15.00;12.25;;;;;23.17;67.94;100966.09;5033072;28;45658;-82
2023/09/12 09:23:08;;;;;;;;;15.00;12.25;;;;;23.16;67.62;100958.91;5032033;28;45381;-82
2023/09/12 09:25:37;;;;;;;;;12.50;11.00;;;;;23.08;67.40;100934.16;5021297;28;45565;-82
2023/09/12 09:28:05;;;;;;;;;18.25;13.50;;;;;23.16;67.57;100936.25;5037785;28;45598;-82
2023/09/12 09:30:45;;;;;;;;;13.25;11.25;;;;;23.22;67.34;100949.34;5035691;28;45974;-82
2023/09/12 09:33:12;;;;;;;;;17.25;16.50;;;;;23.10;67.59;100938.50;5035158;28;45376;-82
2023/09/12 09:35:40;;;;;;;;;12.00;11.75;;;;;23.19;67.95;100958.66;5015480;28;45689;-82
2023/09/12 09:38:06;;;;;;;;;12.25;12.25;;;;;23.19;68.10;100969.53;5033947;28;45310;-82
2023/09/12 09:40:35;;;;;;;;;14.25;12.50;;;;;23.21;67.84;100969.44;5022420;28;46375;-82
2023/09/12 09:43:02;;;;;;;;;12.00;11.25;;;;;23.14;67.91;100960.91;5012301;28;45777;-83
2023/09/12 09:45:29;;;;;;;;;14.00;13.00;;;;;23.21;69.05;100980.31;5016955;28;45380;-83
2023/09/12 09:48:04;;;;;;;;;19.00;17.75;;;;;23.10;69.38;100959.41;5008758;28;45610;-83
2023/09/12 09:50:38;;;;;;;;;20.00;17.25;;;;;23.13;71.47;100975.50;5022419;28;45425;-82
2023/09/12 09:53:06;;;;;;;;;14.50;14.50;;;;;23.10;71.62;100982.06;5032056;28;45286;-79
2023/09/12 09:55:32;;;;;;;;;15.75;14.25;;;;;23.00;71.73;100972.84;5032369;28;45275;-85
2023/09/12 09:57:57;;;;;;;;;16.25;13.50;;;;;22.96;71.76;100986.88;5034708;28;45339;-85
2023/09/12 10:00:24;;;;;;;;;18.00;15.75;;;;;22.96;73.07;100992.31;5020580;28;47185;-85
2023/09/12 10:02:52;;;;;;;;;17.50;16.25;;;;;23.00;73.95;101007.38;5035537;28;45549;-85
2023/09/12 10:05:18;;;;;;;;;14.75;14.75;;;;;22.90;73.95;101004.53;5034778;28;45383;-86
2023/09/12 10:07:48;;;;;;;;;15.00;13.75;;;;;23.02;74.54;101028.06;5032417;28;45418;-85
2023/09/12 10:10:14;;;;;;;;;17.50;17.50;;;;;22.96;74.36;101014.94;5033774;28;45398;-86
2023/09/12 10:12:47;;;;;;;;;18.00;16.00;;;;;22.99;75.24;101028.31;5029258;28;45251;-86
2023/09/12 10:15:15;;;;;;;;;21.75;17.75;;;;;22.99;74.97;101032.88;5038971;28;45297;-85
2023/09/12 10:17:46;;;;;;;;;20.25;16.75;;;;;22.85;75.25;101021.22;5037349;28;45528;-86
2023/09/12 10:20:27;;;;;;;;;7.50;7.00;;;;;22.87;75.97;101030.16;5030159;28;46175;-86
2023/09/12 10:23:03;;;;;;;;;21.00;19.75;;;;;22.88;76.18;101029.16;5018709;28;45299;-86
2023/09/12 10:25:30;;;;;;;;;21.25;16.50;;;;;22.97;76.04;101043.03;5035927;28;45477;-85
2023/09/12 10:27:56;;;;;;;;;19.50;17.75;;;;;22.96;76.30;101050.34;5030883;28;45386;-86
2023/09/12 10:30:23;;;;;;;;;19.50;18.25;;;;;22.94;75.98;101044.16;5031456;28;46096;-86
2023/09/12 10:32:49;;;;;;;;;16.50;14.50;;;;;22.93;76.15;101036.97;5030246;28;45386;-86
2023/09/12 10:35:15;;;;;;;;;18.25;17.25;;;;;22.88;76.88;101025.56;5030259;28;45418;-86
2023/09/12 10:37:45;;;;;;;;;17.25;17.25;;;;;22.83;76.91;101017.78;5020152;28;45611;-86
2023/09/12 10:40:14;;;;;;;;;14.75;14.75;;;;;22.75;77.26;101002.06;5029595;28;45551;-87
2023/09/12 10:42:42;;;;;;;;;21.50;19.25;;;;;22.79;77.68;101009.97;5030700;28;45761;-87
2023/09/12 10:45:08;;;;;;;;;18.75;17.00;;;;;22.67;77.71;100980.06;5026725;28;46057;-87
2023/09/12 10:47:35;;;;;;;;;18.75;16.75;;;;;22.82;77.87;101010.63;5033693;28;46663;-87
2023/09/12 10:50:02;;;;;;;;;20.00;20.00;;;;;22.71;78.13;100992.41;5006071;28;47223;-87
2023/09/12 10:52:28;;;;;;;;;19.75;18.25;;;;;22.73;78.51;100989.56;5025223;28;45260;-88
2023/09/12 10:54:53;;;;;;;;;21.50;18.25;;;;;22.77;78.36;100993.78;5030998;28;45406;-87
2023/09/12 10:57:20;;;;;;;;;20.75;18.50;;;;;22.68;78.72;100980.91;5026924;28;45580;-87
2023/09/12 11:00:12;;;;;;;;;16.25;15.25;;;;;22.78;78.77;100990.06;5030236;28;45565;-87
2023/09/12 11:02:42;;;;;;;;;15.75;15.75;;;;;22.68;78.83;100975.47;5016301;28;45695;-87
2023/09/12 11:05:27;;;;;;;;;16.50;16.50;;;;;22.72;78.94;100993.25;5023865;28;45832;-87
2023/09/12 11:07:59;;;;;;;;;15.00;13.00;;;;;22.73;79.00;100997.72;5026636;28;45498;-87
2023/09/12 11:10:26;;;;;;;;;11.50;11.50;;;;;22.65;79.31;100992.03;5028530;28;46855;-87
2023/09/12 11:12:54;;;;;;;;;12.00;11.75;;;;;22.67;79.62;101007.25;5033834;28;45791;-84